Whites Chapel, Alabama
Current Conditions -  °F | °C
As of 12:53 AM on Wednesday 26 Nov 2014 (Local Time) from KBHM Reporting Station
Scattered Clouds Scattered Clouds  
Wind Chill: 40°   Ceiling: Unl
Heat Index: 44°   Visibility: 10mi
Dew Point: 28°   Wind: 7mph
Humidity: 53%   Direction: 330°NNW
Pressure: 30.11"   Gusts: NA
Location:  33.6426°N, 86.5754°W
Report Text: KBHM 260653Z 33006KT 10SM SCT110 07/M02 A3011 RMK AO2 SLP195 T00671022
Loading
Personal Weather Stations






























Interactive Weather Map New forecast layout! Learn more

10-Day Weather Forecast

Advertisements
Track Severe Weather on mobile